Time;durP1;ratioP1;P1;durP2;ratioP2;P2;SDS_P1;SDS_P2;PMS_P1;PMS_P2;Temp;Humidity;BMP_temperature;BMP_pressure;BME280_temperature;BME280_humidity;BME280_pressure;Samples;Min_cycle;Max_cycle;Signal;HPM_P1;HPM_P2
2022/06/12 00:01:23;;;;;;;7.57;3.70;;;15.10;99.90;;;;;;5042540;28;20770;-77
2022/06/12 00:03:50;;;;;;;9.43;4.70;;;15.10;99.90;;;;;;5039023;28;20233;-77
2022/06/12 00:06:20;;;;;;;7.43;3.93;;;15.10;99.90;;;;;;5040888;28;20212;-76
2022/06/12 00:08:47;;;;;;;8.43;3.63;;;15.00;99.90;;;;;;5038486;28;20279;-76
2022/06/12 00:11:23;;;;;;;9.07;3.67;;;15.00;99.90;;;;;;5042522;28;20735;-77
2022/06/12 00:13:54;;;;;;;10.27;3.73;;;15.00;99.90;;;;;;5040777;28;20268;-77
2022/06/12 00:16:21;;;;;;;8.67;3.63;;;14.90;99.90;;;;;;5075113;28;20209;-76
2022/06/12 00:18:49;;;;;;;8.77;3.53;;;14.90;99.90;;;;;;5047254;28;20599;-76
2022/06/12 00:21:17;;;;;;;9.07;3.63;;;14.90;99.90;;;;;;5041637;28;20217;-77
2022/06/12 00:24:00;;;;;;;10.10;3.57;;;14.80;99.90;;;;;;5041046;28;20221;-78
2022/06/12 00:26:30;;;;;;;10.17;3.17;;;14.80;99.90;;;;;;5043774;28;20216;-77
2022/06/12 00:29:02;;;;;;;9.23;3.23;;;14.80;99.90;;;;;;5045086;28;20305;-77
2022/06/12 00:31:29;;;;;;;9.20;2.73;;;14.80;99.90;;;;;;5046128;28;20727;-76
2022/06/12 00:33:57;;;;;;;5.70;2.73;;;14.80;99.90;;;;;;5044308;28;20194;-77
2022/06/12 00:36:24;;;;;;;8.53;3.17;;;14.80;99.90;;;;;;5044823;28;20214;-77
2022/06/12 00:38:51;;;;;;;8.63;2.97;;;14.70;99.90;;;;;;5039868;28;20202;-78
2022/06/12 00:41:18;;;;;;;5.20;2.73;;;14.70;99.90;;;;;;5047160;28;20209;-76
2022/06/12 00:43:45;;;;;;;9.83;2.93;;;14.70;99.90;;;;;;5042337;28;20226;-78
2022/06/12 00:46:37;;;;;;;7.37;2.77;;;14.60;99.90;;;;;;5045049;28;20216;-77
2022/06/12 00:49:19;;;;;;;8.67;3.30;;;14.60;99.90;;;;;;5040516;28;20209;-78
2022/06/12 00:51:50;;;;;;;8.10;2.90;;;14.60;99.90;;;;;;5042284;28;20207;-78
2022/06/12 00:54:18;;;;;;;9.90;3.03;;;14.50;99.90;;;;;;5040129;28;20221;-76
2022/06/12 00:56:49;;;;;;;10.10;3.30;;;14.40;99.90;;;;;;5040005;28;20202;-76
2022/06/12 00:59:40;;;;;;;8.80;3.30;;;14.40;99.90;;;;;;5038711;28;20217;-79
2022/06/12 01:02:11;;;;;;;7.87;3.00;;;14.30;99.90;;;;;;5040631;28;20287;-76
2022/06/12 01:07:29;;;;;;;11.10;3.30;;;14.30;99.90;;;;;;5038057;28;20271;-77
2022/06/12 01:10:01;;;;;;;12.23;3.10;;;14.30;99.90;;;;;;5041621;28;20248;-77
2022/06/12 01:12:35;;;;;;;7.50;3.47;;;14.30;99.90;;;;;;5038362;28;20836;-77
2022/06/12 01:15:14;;;;;;;9.47;3.20;;;14.30;99.90;;;;;;5038932;28;20214;-78
2022/06/12 01:17:43;;;;;;;9.27;3.50;;;14.30;99.90;;;;;;5037208;28;20641;-76
2022/06/12 01:20:14;;;;;;;8.77;2.87;;;14.20;99.90;;;;;;5037934;28;20291;-77
2022/06/12 01:23:04;;;;;;;9.97;3.17;;;14.20;99.90;;;;;;5038892;28;20238;-77
2022/06/12 01:25:40;;;;;;;6.83;2.73;;;14.20;99.90;;;;;;5040841;28;20306;-77
2022/06/12 01:28:32;;;;;;;8.93;2.80;;;14.20;99.90;;;;;;5039955;28;20631;-78
2022/06/12 01:31:34;;;;;;;6.60;3.00;;;14.20;99.90;;;;;;5039453;28;20216;-78
2022/06/12 01:34:09;;;;;;;7.57;3.27;;;14.20;99.90;;;;;;5040278;28;20211;-79
2022/06/12 01:37:03;;;;;;;9.93;3.60;;;14.10;99.90;;;;;;5040149;28;20204;-76
2022/06/12 01:39:57;;;;;;;6.53;3.93;;;14.00;99.90;;;;;;5038648;28;20233;-77
2022/06/12 01:42:43;;;;;;;7.73;4.37;;;13.80;99.90;;;;;;5036958;28;20213;-77
2022/06/12 01:45:19;;;;;;;6.50;4.37;;;13.70;99.90;;;;;;5036684;28;20759;-78
2022/06/12 01:48:04;;;;;;;8.73;4.43;;;13.60;99.90;;;;;;5036312;28;20213;-78
2022/06/12 01:50:40;;;;;;;7.60;4.30;;;13.40;99.90;;;;;;5037770;28;20208;-78
2022/06/12 01:53:44;;;;;;;12.87;4.00;;;13.40;99.90;;;;;;5037086;28;20215;-78
2022/06/12 01:56:21;;;;;;;8.30;4.33;;;13.30;99.90;;;;;;5037296;28;20248;-77
2022/06/12 01:59:09;;;;;;;9.33;4.60;;;13.20;99.90;;;;;;5037434;28;20211;-77
2022/06/12 02:02:08;;;;;;;7.90;4.00;;;13.20;99.90;;;;;;5039940;28;20239;-77
2022/06/12 02:04:53;;;;;;;7.13;3.23;;;13.20;99.90;;;;;;5035511;28;20297;-77
2022/06/12 02:07:40;;;;;;;9.30;3.20;;;13.10;99.90;;;;;;5039076;28;20242;-77
2022/06/12 02:10:20;;;;;;;8.77;3.20;;;13.10;99.90;;;;;;5038503;28;20711;-78
2022/06/12 02:15:49;;;;;;;8.00;2.93;;;13.10;99.90;;;;;;5036702;28;20672;-77
2022/06/12 02:18:23;;;;;;;5.53;3.30;;;13.10;99.90;;;;;;5036675;28;20230;-78
2022/06/12 02:20:57;;;;;;;8.87;3.20;;;13.10;99.90;;;;;;5036870;28;20212;-77
2022/06/12 02:23:32;;;;;;;11.23;2.93;;;13.10;99.90;;;;;;5035624;28;20278;-78
2022/06/12 02:26:00;;;;;;;5.33;2.77;;;13.10;99.90;;;;;;5035933;28;20219;-77
2022/06/12 02:28:34;;;;;;;8.83;2.90;;;13.10;99.90;;;;;;5039641;28;20270;-77
2022/06/12 02:31:06;;;;;;;9.33;2.93;;;13.20;99.90;;;;;;5038891;28;20282;-77
2022/06/12 02:33:38;;;;;;;7.70;2.87;;;13.20;99.90;;;;;;5040157;28;20208;-77
2022/06/12 02:36:16;;;;;;;6.87;2.53;;;13.20;99.90;;;;;;5037122;28;20236;-77
2022/06/12 02:38:48;;;;;;;10.70;3.20;;;13.20;99.90;;;;;;5036641;28;20263;-78
2022/06/12 02:41:22;;;;;;;8.60;3.07;;;13.30;99.90;;;;;;5035809;28;21013;-76
2022/06/12 02:43:50;;;;;;;10.83;2.70;;;13.40;99.90;;;;;;5038859;28;20233;-77
2022/06/12 02:46:30;;;;;;;7.77;2.70;;;13.40;99.90;;;;;;5036178;28;20221;-78
2022/06/12 02:48:57;;;;;;;11.50;2.97;;;13.40;99.90;;;;;;5036545;28;20665;-77
2022/06/12 02:51:42;;;;;;;11.67;2.83;;;13.50;99.90;;;;;;5036809;28;20279;-76
2022/06/12 02:54:34;;;;;;;9.63;2.77;;;13.60;99.90;;;;;;5035265;28;20227;-76
2022/06/12 02:57:06;;;;;;;8.53;2.77;;;13.60;99.90;;;;;;5037947;28;20205;-78
2022/06/12 03:00:06;;;;;;;7.13;3.00;;;13.60;99.90;;;;;;5036049;28;20217;-77
2022/06/12 03:02:40;;;;;;;10.50;3.43;;;13.70;99.90;;;;;;5032135;28;20238;-76
2022/06/12 03:05:44;;;;;;;10.13;2.93;;;13.70;99.90;;;;;;5038930;28;20263;-76
2022/06/12 03:08:15;;;;;;;7.90;2.80;;;13.70;99.90;;;;;;5031773;28;20214;-77
2022/06/12 03:11:08;;;;;;;8.77;3.23;;;13.70;99.90;;;;;;5041412;28;20636;-77
2022/06/12 03:13:37;;;;;;;10.43;2.60;;;13.80;99.90;;;;;;5040979;28;20324;-78
2022/06/12 03:16:16;;;;;;;9.90;3.07;;;13.80;99.90;;;;;;5041069;28;20244;-78
2022/06/12 03:18:55;;;;;;;9.57;2.53;;;13.80;99.90;;;;;;5039652;28;20244;-77
2022/06/12 03:21:22;;;;;;;7.87;3.50;;;13.80;99.90;;;;;;5035134;28;20208;-77
2022/06/12 03:24:08;;;;;;;8.90;3.17;;;13.80;99.90;;;;;;5037977;28;20550;-78
2022/06/12 03:27:08;;;;;;;9.03;2.70;;;13.80;99.90;;;;;;5039140;28;20212;-77
2022/06/12 03:29:55;;;;;;;13.60;3.13;;;13.80;99.90;;;;;;5044181;28;20715;-77
2022/06/12 03:32:27;;;;;;;15.17;3.27;;;13.90;99.90;;;;;;5038559;28;20221;-77
2022/06/12 03:35:01;;;;;;;9.00;3.30;;;13.90;99.90;;;;;;5042078;28;20212;-78
2022/06/12 03:38:10;;;;;;;12.97;3.10;;;13.90;99.90;;;;;;5041581;28;20255;-78
2022/06/12 03:41:06;;;;;;;10.70;3.40;;;14.00;99.90;;;;;;5033603;28;20316;-77
2022/06/12 03:43:54;;;;;;;12.77;3.17;;;13.90;99.90;;;;;;5041664;28;20268;-76
2022/06/12 03:46:40;;;;;;;15.87;3.47;;;14.00;99.90;;;;;;5044313;28;20217;-76
2022/06/12 03:49:19;;;;;;;13.17;3.80;;;14.10;99.90;;;;;;5043455;28;20248;-76
2022/06/12 03:51:53;;;;;;;11.70;3.60;;;14.10;99.90;;;;;;5036230;28;20206;-78
2022/06/12 03:54:24;;;;;;;12.03;3.03;;;14.10;99.90;;;;;;5035398;28;20221;-76
2022/06/12 03:59:54;;;;;;;16.77;4.10;;;14.20;99.90;;;;;;5036651;28;20568;-77
2022/06/12 04:02:24;;;;;;;14.83;3.27;;;14.20;99.90;;;;;;5041944;28;20233;-77
2022/06/12 04:04:53;;;;;;;10.80;3.30;;;14.30;99.90;;;;;;5042671;28;20229;-77
2022/06/12 04:07:23;;;;;;;14.30;3.93;;;14.40;99.90;;;;;;5039780;28;20209;-75
2022/06/12 04:09:52;;;;;;;12.93;3.30;;;14.40;99.90;;;;;;5037983;28;20222;-77
2022/06/12 04:12:24;;;;;;;10.20;3.57;;;14.50;99.90;;;;;;5039916;28;20274;-77
2022/06/12 04:15:06;;;;;;;11.70;3.90;;;14.60;99.90;;;;;;5041382;28;20267;-77
2022/06/12 04:17:34;;;;;;;12.67;3.53;;;14.60;99.90;;;;;;5037828;28;20622;-78
2022/06/12 04:20:05;;;;;;;11.40;3.40;;;14.60;99.90;;;;;;5038949;28;20217;-77
2022/06/12 04:22:46;;;;;;;17.33;3.57;;;14.70;99.90;;;;;;5039337;28;20618;-76
2022/06/12 04:25:26;;;;;;;13.23;3.10;;;14.70;99.90;;;;;;5040045;28;20240;-76
2022/06/12 04:27:53;;;;;;;12.43;3.60;;;14.70;99.90;;;;;;5038456;28;20251;-77
2022/06/12 04:30:25;;;;;;;18.50;3.73;;;14.80;99.90;;;;;;5040913;28;20609;-76
2022/06/12 04:33:20;;;;;;;12.37;3.43;;;14.80;99.90;;;;;;5037782;28;20210;-76
2022/06/12 04:35:59;;;;;;;15.03;4.23;;;14.90;99.90;;;;;;5031093;28;20212;-76
2022/06/12 04:38:29;;;;;;;14.27;4.07;;;15.00;99.90;;;;;;5038062;28;20241;-78
2022/06/12 04:40:56;;;;;;;10.90;4.03;;;15.00;99.90;;;;;;5036641;28;20222;-77
2022/06/12 04:43:23;;;;;;;13.40;3.73;;;15.10;99.90;;;;;;5040143;28;20670;-76
2022/06/12 04:45:51;;;;;;;15.10;3.87;;;15.10;99.90;;;;;;5036171;28;20275;-78
2022/06/12 04:48:26;;;;;;;13.37;3.33;;;15.20;99.90;;;;;;5039608;28;20206;-76
2022/06/12 04:50:53;;;;;;;11.10;3.53;;;15.30;99.90;;;;;;5039964;28;20201;-77
2022/06/12 04:53:20;;;;;;;13.00;3.90;;;15.30;99.90;;;;;;5036693;28;20213;-77
2022/06/12 04:55:47;;;;;;;17.27;4.27;;;15.40;99.90;;;;;;5038972;28;20583;-77
2022/06/12 04:58:13;;;;;;;11.57;4.30;;;15.40;99.90;;;;;;5035707;28;20308;-77
2022/06/12 05:00:41;;;;;;;15.33;3.70;;;15.40;99.90;;;;;;5070952;28;20237;-78
2022/06/12 05:03:08;;;;;;;21.20;4.33;;;15.50;99.90;;;;;;5038906;28;20220;-78
2022/06/12 05:05:35;;;;;;;14.30;3.60;;;15.50;99.90;;;;;;5040907;28;20598;-78
2022/06/12 05:08:02;;;;;;;10.57;3.87;;;15.50;99.90;;;;;;5037506;28;20210;-78
2022/06/12 05:10:29;;;;;;;15.00;4.17;;;15.70;99.90;;;;;;5037622;28;20228;-77
2022/06/12 05:12:56;;;;;;;11.47;4.00;;;15.80;99.90;;;;;;5039673;28;20250;-78
2022/06/12 05:15:23;;;;;;;13.87;3.80;;;15.90;99.90;;;;;;5039271;28;20206;-77
2022/06/12 05:17:50;;;;;;;17.57;4.27;;;15.90;99.90;;;;;;5038853;28;20201;-78
2022/06/12 05:20:21;;;;;;;16.10;4.03;;;16.00;99.90;;;;;;5037313;28;20214;-78
2022/06/12 05:22:48;;;;;;;19.23;4.60;;;;;;;;;;5037463;28;20549;-75
2022/06/12 05:25:19;;;;;;;16.50;4.13;;;16.10;99.90;;;;;;5039345;28;20769;-77
2022/06/12 05:27:47;;;;;;;17.15;3.72;;;16.70;99.90;;;;;;5038876;28;20205;-78
2022/06/12 05:30:16;;;;;;;18.08;3.83;;;;;;;;;;5037220;28;20723;-76
2022/06/12 05:32:44;;;;;;;11.48;3.20;;;18.60;99.90;;;;;;5028376;28;20217;-77
2022/06/12 05:35:12;;;;;;;12.23;3.38;;;;;;;;;;5038810;28;20736;-77
2022/06/12 05:37:39;;;;;;;9.25;3.38;;;20.20;99.90;;;;;;5038815;28;20618;-77
2022/06/12 05:40:11;;;;;;;10.43;3.83;;;21.00;99.90;;;;;;5037993;28;20279;-77
2022/06/12 05:42:39;;;;;;;16.83;3.38;;;21.60;99.90;;;;;;5068560;28;20210;-77
2022/06/12 05:45:08;;;;;;;10.48;2.90;;;22.10;99.90;;;;;;5039188;28;20229;-77
2022/06/12 05:47:35;;;;;;;15.77;3.55;;;22.70;99.90;;;;;;5038013;28;20284;-76
2022/06/12 05:50:02;;;;;;;14.27;3.75;;;23.30;99.90;;;;;;5038341;28;20213;-76
2022/06/12 05:52:28;;;;;;;12.48;3.10;;;23.80;99.90;;;;;;5039161;28;20282;-77
2022/06/12 05:54:55;;;;;;;9.90;2.63;;;24.40;99.90;;;;;;5036537;28;20866;-76
2022/06/12 05:57:22;;;;;;;15.40;3.88;;;24.30;99.90;;;;;;5036270;28;20706;-77
2022/06/12 05:59:49;;;;;;;14.68;3.90;;;24.70;99.90;;;;;;5039063;28;20227;-77
2022/06/12 06:02:16;;;;;;;12.80;3.38;;;24.90;99.90;;;;;;5038008;28;20314;-77
2022/06/12 06:04:43;;;;;;;14.77;3.05;;;25.30;99.90;;;;;;5038354;28;20225;-76
2022/06/12 06:07:10;;;;;;;18.75;4.50;;;25.40;99.90;;;;;;5037200;28;20268;-77
2022/06/12 06:09:36;;;;;;;9.73;3.28;;;25.70;99.90;;;;;;5071447;28;20701;-76
2022/06/12 06:12:04;;;;;;;15.23;3.78;;;;;;;;;;5034056;28;20625;-76
2022/06/12 06:14:31;;;;;;;11.52;3.08;;;26.40;99.90;;;;;;5039039;28;20557;-76
2022/06/12 06:17:04;;;;;;;13.18;2.83;;;26.40;99.90;;;;;;5034483;28;20259;-77
2022/06/12 06:19:32;;;;;;;13.30;3.50;;;26.30;99.90;;;;;;5039317;28;20839;-77
2022/06/12 06:21:58;;;;;;;13.52;4.15;;;26.40;99.90;;;;;;5035496;28;20209;-76
2022/06/12 06:24:25;;;;;;;10.68;3.45;;;26.20;99.90;;;;;;5038530;28;20222;-77
2022/06/12 06:26:52;;;;;;;15.18;4.53;;;26.50;99.90;;;;;;5038992;28;20209;-75
2022/06/12 06:29:19;;;;;;;11.82;3.72;;;26.80;99.90;;;;;;5037711;28;20237;-76
2022/06/12 06:31:46;;;;;;;9.85;3.38;;;26.90;99.90;;;;;;5036884;28;20210;-77
2022/06/12 06:34:13;;;;;;;11.90;3.75;;;27.00;99.90;;;;;;5039450;28;20214;-76
2022/06/12 06:36:40;;;;;;;10.48;3.33;;;27.20;99.90;;;;;;5071967;28;20259;-75
2022/06/12 06:39:07;;;;;;;8.95;3.60;;;27.30;99.90;;;;;;5034773;28;20198;-77
2022/06/12 06:41:34;;;;;;;10.35;3.03;;;27.40;99.90;;;;;;5038870;28;20209;-76
2022/06/12 06:46:46;;;;;;;10.10;3.30;;;28.00;99.90;;;;;;5040988;28;20212;-76
2022/06/12 06:49:18;;;;;;;10.68;3.30;;;28.10;99.90;;;;;;5040809;28;20300;-76
2022/06/12 06:51:45;;;;;;;10.48;3.20;;;28.30;99.70;;;;;;5042533;28;20213;-76
2022/06/12 06:54:14;;;;;;;13.23;3.20;;;28.50;99.30;;;;;;5038680;28;20319;-77
2022/06/12 06:56:41;;;;;;;8.25;3.08;;;28.50;98.30;;;;;;5041332;28;20197;-75
2022/06/12 06:59:08;;;;;;;9.52;3.28;;;28.50;97.90;;;;;;5040293;28;20206;-75
2022/06/12 07:01:35;;;;;;;12.45;3.58;;;28.10;97.60;;;;;;5041921;28;20229;-75
2022/06/12 07:04:03;;;;;;;12.52;3.58;;;28.20;97.80;;;;;;5039651;28;20220;-75
2022/06/12 07:06:30;;;;;;;11.07;3.33;;;28.40;97.40;;;;;;5038352;28;20263;-75
2022/06/12 07:08:57;;;;;;;9.15;2.65;;;28.60;97.20;;;;;;5037640;28;20678;-76
2022/06/12 07:11:25;;;;;;;11.27;3.00;;;28.70;96.80;;;;;;5041071;28;20252;-76
2022/06/12 07:13:53;;;;;;;7.88;2.83;;;28.80;96.70;;;;;;5040139;28;20210;-76
2022/06/12 07:16:21;;;;;;;10.52;3.00;;;29.00;96.20;;;;;;5038902;28;20566;-75
2022/06/12 07:18:49;;;;;;;8.93;3.50;;;29.10;95.70;;;;;;5037376;28;20212;-75
2022/06/12 07:21:16;;;;;;;10.00;3.20;;;29.00;95.40;;;;;;5037300;28;20216;-76
2022/06/12 07:23:44;;;;;;;10.43;3.40;;;28.80;94.90;;;;;;5040916;28;20216;-76
2022/06/12 07:26:22;;;;;;;12.02;3.20;;;28.40;94.70;;;;;;5039015;28;20241;-77
2022/06/12 07:28:50;;;;;;;12.52;2.88;;;28.00;94.80;;;;;;5037409;28;20240;-75
2022/06/12 07:31:17;;;;;;;10.00;3.20;;;27.60;95.50;;;;;;5040619;28;20224;-76
2022/06/12 07:33:44;;;;;;;14.02;3.53;;;27.60;95.60;;;;;;5041572;28;20202;-75
2022/06/12 07:36:14;;;;;;;10.05;3.53;;;27.40;95.90;;;;;;5040042;28;20222;-77
2022/06/12 07:38:42;;;;;;;14.75;3.30;;;27.50;96.20;;;;;;5038032;28;20214;-75
2022/06/12 07:41:29;;;;;;;10.88;3.17;;;27.60;96.00;;;;;;5039843;28;20750;-77
2022/06/12 07:43:56;;;;;;;11.20;3.72;;;27.60;96.10;;;;;;5038234;28;20666;-76
2022/06/12 07:46:23;;;;;;;10.85;3.40;;;27.80;96.10;;;;;;5037468;28;20692;-76
2022/06/12 07:48:56;;;;;;;9.35;3.45;;;28.00;96.00;;;;;;5039290;28;20301;-76
2022/06/12 07:51:23;;;;;;;10.95;3.00;;;28.30;95.50;;;;;;5038445;28;20710;-76
2022/06/12 07:53:51;;;;;;;10.73;2.88;;;;;;;;;;5037449;28;20210;-76
2022/06/12 07:56:21;;;;;;;12.63;3.55;;;28.90;94.20;;;;;;5040306;28;20216;-76
2022/06/12 07:58:48;;;;;;;11.68;3.10;;;28.90;93.70;;;;;;5038168;28;20214;-76
2022/06/12 08:01:18;;;;;;;10.50;2.95;;;29.10;93.80;;;;;;5040059;28;20382;-76
2022/06/12 08:03:45;;;;;;;13.98;3.22;;;29.20;93.80;;;;;;5039478;28;20320;-77
2022/06/12 08:06:12;;;;;;;9.95;2.70;;;29.30;93.50;;;;;;5037505;28;20238;-76
2022/06/12 08:08:39;;;;;;;9.10;3.05;;;29.60;93.00;;;;;;5028506;28;20210;-76
2022/06/12 08:11:06;;;;;;;11.32;3.15;;;29.80;92.30;;;;;;5028722;28;20337;-77
2022/06/12 08:13:33;;;;;;;9.90;2.80;;;29.60;92.20;;;;;;5028904;28;20619;-76
2022/06/12 08:16:00;;;;;;;7.85;2.83;;;29.70;92.00;;;;;;5029096;28;20206;-75
2022/06/12 08:18:28;;;;;;;12.50;3.30;;;29.70;92.00;;;;;;5037701;28;20599;-76
2022/06/12 08:21:00;;;;;;;11.88;2.92;;;29.70;91.30;;;;;;5036499;28;20291;-77
2022/06/12 08:23:33;;;;;;;9.30;3.20;;;29.70;91.00;;;;;;5037999;28;20660;-75
2022/06/12 08:26:05;;;;;;;7.38;2.58;;;29.60;91.00;;;;;;5037479;28;20705;-75
2022/06/12 08:28:36;;;;;;;11.10;2.72;;;29.30;90.60;;;;;;5040388;28;20981;-77
2022/06/12 08:31:07;;;;;;;6.20;2.58;;;28.90;91.20;;;;;;5038212;28;20210;-76
2022/06/12 08:33:37;;;;;;;8.82;2.92;;;29.00;91.60;;;;;;5041588;28;20263;-74
2022/06/12 08:36:06;;;;;;;7.82;2.70;;;29.10;91.60;;;;;;5037652;28;20205;-75
2022/06/12 08:38:33;;;;;;;7.47;2.78;;;29.30;91.20;;;;;;5037414;28;20210;-76
2022/06/12 08:41:17;;;;;;;8.30;2.55;;;29.10;90.80;;;;;;5038697;28;20323;-75
2022/06/12 08:44:04;;;;;;;8.63;2.47;;;29.30;90.80;;;;;;5029557;28;20217;-75
2022/06/12 08:46:37;;;;;;;6.78;2.28;;;29.50;90.20;;;;;;5029049;28;20275;-76
2022/06/12 08:49:46;;;;;;;7.00;2.83;;;29.70;89.30;;;;;;5028815;28;20248;-76
2022/06/12 08:52:34;;;;;;;5.07;2.45;;;29.60;88.30;;;;;;5033106;28;20264;-76
2022/06/12 08:55:26;;;;;;;7.53;2.50;;;29.80;89.80;;;;;;5040757;28;20304;-75
2022/06/12 08:58:18;;;;;;;10.00;3.05;;;29.90;88.10;;;;;;5040242;28;20209;-76
2022/06/12 09:00:46;;;;;;;5.25;2.22;;;29.90;86.00;;;;;;5040449;28;20237;-76
2022/06/12 09:03:22;;;;;;;5.28;2.28;;;29.30;85.50;;;;;;5040766;28;20664;-76
2022/06/12 09:06:00;;;;;;;9.38;2.83;;;29.10;82.40;;;;;;5038851;28;20237;-75
2022/06/12 09:08:32;;;;;;;8.98;2.60;;;28.70;83.10;;;;;;5037935;28;20264;-76
2022/06/12 09:11:13;;;;;;;5.15;2.10;;;28.50;84.70;;;;;;5038408;28;20232;-76
2022/06/12 09:13:50;;;;;;;5.53;2.05;;;28.40;83.00;;;;;;5037925;28;20256;-76
2022/06/12 09:16:48;;;;;;;8.85;2.22;;;28.20;85.00;;;;;;5040910;28;20270;-77
2022/06/12 09:19:32;;;;;;;6.78;2.10;;;28.40;85.70;;;;;;5039651;28;20232;-77
2022/06/12 09:22:12;;;;;;;5.80;2.10;;;28.40;85.00;;;;;;5040063;28;20259;-77
2022/06/12 09:24:59;;;;;;;7.82;2.40;;;28.40;85.70;;;;;;5038359;28;20591;-75
2022/06/12 09:27:39;;;;;;;7.60;2.38;;;27.80;84.60;;;;;;5037639;28;20220;-75
2022/06/12 09:30:10;;;;;;;8.68;2.38;;;27.50;85.60;;;;;;5036477;28;20213;-76
2022/06/12 09:32:40;;;;;;;8.05;2.50;;;27.10;87.50;;;;;;5036474;28;20304;-76
2022/06/12 09:35:28;;;;;;;4.53;2.00;;;26.80;88.20;;;;;;5041887;28;20205;-75
2022/06/12 09:38:19;;;;;;;10.13;2.92;;;27.10;89.80;;;;;;5037808;28;20228;-76
2022/06/12 09:41:07;;;;;;;10.63;2.97;;;27.30;89.20;;;;;;5037872;28;20229;-77
2022/06/12 09:43:46;;;;;;;8.50;2.72;;;27.40;89.20;;;;;;5037604;28;20224;-76
2022/06/12 09:46:52;;;;;;;11.50;2.95;;;27.20;88.10;;;;;;5036458;28;20233;-76
2022/06/12 09:50:01;;;;;;;7.25;2.47;;;27.10;89.10;;;;;;5038263;28;20202;-77
2022/06/12 09:52:33;;;;;;;9.88;2.78;;;27.30;89.80;;;;;;5036890;28;20233;-76
2022/06/12 09:55:10;;;;;;;7.07;2.28;;;27.20;89.90;;;;;;5036939;28;20216;-77
2022/06/12 09:57:45;;;;;;;8.30;2.58;;;27.30;90.40;;;;;;5040602;28;20668;-77
2022/06/12 10:00:25;;;;;;;7.55;2.55;;;27.50;90.60;;;;;;5037343;28;20296;-75
2022/06/12 10:03:10;;;;;;;7.95;2.60;;;27.30;89.90;;;;;;5036337;28;20281;-76
2022/06/12 10:05:55;;;;;;;8.55;2.63;;;27.10;90.20;;;;;;5036969;28;20256;-76
2022/06/12 10:08:39;;;;;;;9.95;2.97;;;26.50;90.20;;;;;;5038731;28;20631;-75
2022/06/12 10:11:16;;;;;;;7.55;3.03;;;26.00;90.40;;;;;;5053056;28;20225;-76
2022/06/12 10:14:09;;;;;;;7.25;2.53;;;26.00;91.10;;;;;;5040318;28;20234;-75
2022/06/12 10:16:54;;;;;;;6.72;2.50;;;26.30;91.10;;;;;;5037521;28;20209;-76
2022/06/12 10:19:36;;;;;;;9.45;2.47;;;26.40;91.00;;;;;;5040085;28;20224;-75
2022/06/12 10:22:13;;;;;;;5.60;2.45;;;26.50;90.90;;;;;;5041892;28;20212;-76
2022/06/12 10:24:40;;;;;;;9.65;3.00;;;26.30;90.70;;;;;;5040012;28;20679;-75
2022/06/12 10:27:10;;;;;;;7.25;2.53;;;26.20;91.20;;;;;;5042806;28;20236;-76
2022/06/12 10:29:52;;;;;;;6.32;2.40;;;26.30;91.20;;;;;;5041315;28;20316;-75
2022/06/12 10:32:24;;;;;;;9.40;2.95;;;26.20;90.40;;;;;;5040119;28;20279;-75
2022/06/12 10:34:51;;;;;;;6.45;2.72;;;25.90;90.40;;;;;;5042769;28;20258;-76
2022/06/12 10:37:24;;;;;;;6.40;2.35;;;25.90;91.00;;;;;;5042493;28;20245;-76
2022/06/12 10:40:14;;;;;;;7.65;2.47;;;25.90;91.30;;;;;;5038213;28;20253;-76
2022/06/12 10:42:58;;;;;;;8.57;2.67;;;25.90;90.30;;;;;;5038738;28;20732;-77
2022/06/12 10:45:25;;;;;;;7.45;2.10;;;25.80;90.80;;;;;;5038533;28;20280;-74
2022/06/12 10:47:56;;;;;;;11.30;2.50;;;25.90;91.00;;;;;;5043218;28;20632;-76
2022/06/12 10:50:33;;;;;;;7.65;2.50;;;26.10;91.00;;;;;;5040333;28;20216;-74
2022/06/12 10:53:09;;;;;;;7.85;2.33;;;26.40;90.80;;;;;;5040291;28;20271;-76
2022/06/12 10:55:42;;;;;;;7.75;2.83;;;26.50;90.00;;;;;;5040718;28;20740;-74
2022/06/12 10:58:35;;;;;;;7.03;2.10;;;26.30;90.60;;;;;;5040453;28;20226;-76
2022/06/12 11:01:30;;;;;;;7.10;2.25;;;26.40;90.60;;;;;;5038421;28;20263;-77
2022/06/12 11:04:33;;;;;;;4.60;2.20;;;26.50;90.60;;;;;;5042241;28;20258;-76
2022/06/12 11:07:22;;;;;;;7.95;2.30;;;26.20;90.10;;;;;;5039183;28;20244;-75
2022/06/12 11:10:05;;;;;;;7.55;2.58;;;25.90;90.20;;;;;;5039098;28;20272;-75
2022/06/12 11:13:05;;;;;;;5.65;1.95;;;25.80;90.20;;;;;;5036773;28;20213;-76
2022/06/12 11:16:00;;;;;;;6.72;2.13;;;25.60;90.40;;;;;;5037800;28;20263;-75
2022/06/12 11:18:42;;;;;;;6.53;1.90;;;25.30;90.70;;;;;;5032476;28;20672;-75
2022/06/12 11:21:31;;;;;;;4.75;1.90;;;25.20;91.00;;;;;;5038451;28;20642;-76
2022/06/12 11:24:18;;;;;;;6.20;2.38;;;25.10;91.10;;;;;;5038211;28;20221;-76
2022/06/12 11:27:08;;;;;;;4.07;2.13;;;24.90;91.20;;;;;;5036269;28;20311;-76
2022/06/12 11:29:49;;;;;;;8.85;2.20;;;24.80;91.00;;;;;;5040323;28;20259;-75
2022/06/12 11:32:26;;;;;;;8.35;2.10;;;24.90;91.10;;;;;;5040068;28;20688;-75
2022/06/12 11:35:31;;;;;;;4.68;1.80;;;25.00;90.70;;;;;;5041142;28;20204;-75
2022/06/12 11:38:04;;;;;;;9.63;2.70;;;25.00;90.20;;;;;;5040542;28;20205;-76
2022/06/12 11:40:40;;;;;;;7.40;2.45;;;24.90;90.50;;;;;;5037987;28;20336;-76
2022/06/12 11:43:29;;;;;;;5.88;2.00;;;24.90;90.20;;;;;;5037315;28;20208;-76
2022/06/12 11:46:21;;;;;;;4.07;1.90;;;25.00;90.90;;;;;;5039540;28;20257;-78
2022/06/12 11:48:51;;;;;;;8.77;2.30;;;25.20;91.30;;;;;;5054820;28;20261;-76
2022/06/12 11:51:23;;;;;;;5.90;1.85;;;25.30;90.70;;;;;;5037798;28;20209;-76
2022/06/12 11:54:28;;;;;;;4.35;1.88;;;25.50;90.30;;;;;;5038253;28;20206;-76
2022/06/12 11:57:17;;;;;;;5.50;1.83;;;25.50;90.00;;;;;;5040069;28;20220;-75
2022/06/12 12:00:17;;;;;;;5.22;2.17;;;25.20;90.10;;;;;;5039408;28;20225;-75
2022/06/12 12:03:29;;;;;;;6.15;2.38;;;25.00;90.50;;;;;;5040392;28;20284;-77
2022/06/12 12:06:19;;;;;;;6.10;2.08;;;25.10;90.90;;;;;;5038648;28;20638;-77
2022/06/12 12:09:15;;;;;;;7.07;2.13;;;25.40;90.50;;;;;;5039454;28;20205;-76
2022/06/12 12:11:46;;;;;;;6.45;2.10;;;25.50;88.50;;;;;;5039804;28;20205;-77
2022/06/12 12:14:21;;;;;;;5.90;1.90;;;25.40;89.80;;;;;;5037850;28;20218;-77
2022/06/12 12:16:55;;;;;;;3.38;1.60;;;25.30;90.20;;;;;;5035134;28;20254;-77
2022/06/12 12:19:38;;;;;;;5.00;2.50;;;25.20;90.40;;;;;;5039881;28;20740;-75
2022/06/12 12:22:10;;;;;;;6.07;2.05;;;25.10;90.40;;;;;;5039568;28;20685;-76
2022/06/12 12:25:15;;;;;;;5.80;2.00;;;25.20;90.00;;;;;;5036132;28;20237;-76
2022/06/12 12:27:45;;;;;;;7.22;2.20;;;25.30;88.70;;;;;;5034922;28;20988;-75
2022/06/12 12:30:24;;;;;;;6.90;1.58;;;25.40;89.40;;;;;;5040077;28;20615;-77
2022/06/12 12:32:58;;;;;;;5.20;2.00;;;25.50;89.00;;;;;;5038228;28;20753;-75
2022/06/12 12:41:13;;;;;;;4.93;1.73;;;25.20;89.20;;;;;;5037543;28;20226;-77
2022/06/12 12:44:06;;;;;;;3.80;1.83;;;25.50;90.10;;;;;;5036215;28;20213;-77
2022/06/12 12:46:44;;;;;;;6.53;2.05;;;25.70;86.10;;;;;;5036936;28;20608;-76
2022/06/12 12:49:29;;;;;;;5.97;1.80;;;25.90;86.90;;;;;;5036292;28;20222;-77
2022/06/12 12:52:17;;;;;;;3.33;1.88;;;26.10;88.80;;;;;;5035617;28;20287;-78
2022/06/12 12:54:53;;;;;;;5.72;2.00;;;26.20;86.10;;;;;;5038569;28;20706;-77
2022/06/12 12:57:33;;;;;;;5.93;1.83;;;26.10;85.20;;;;;;5036702;28;20213;-76
2022/06/12 13:00:00;;;;;;;4.03;1.90;;;26.00;85.00;;;;;;5036882;28;20216;-76
2022/06/12 13:02:35;;;;;;;3.50;1.50;;;26.00;85.20;;;;;;5038138;28;20226;-77
2022/06/12 13:05:18;;;;;;;5.22;1.77;;;26.00;84.10;;;;;;5038133;28;20208;-75
2022/06/12 13:08:03;;;;;;;6.38;1.63;;;25.90;84.00;;;;;;5067449;28;20232;-76
2022/06/12 13:11:12;;;;;;;3.63;1.30;;;25.90;84.70;;;;;;5039420;28;20213;-75
2022/06/12 13:13:56;;;;;;;7.32;1.90;;;25.90;82.60;;;;;;5037518;28;20206;-75
2022/06/12 13:16:34;;;;;;;4.28;1.25;;;25.60;84.40;;;;;;5052096;28;20198;-77
2022/06/12 13:19:10;;;;;;;3.40;1.80;;;25.20;83.90;;;;;;5036062;28;20600;-77
2022/06/12 13:21:37;;;;;;;2.70;1.23;;;25.10;84.90;;;;;;5037802;28;20224;-76
2022/06/12 13:24:24;;;;;;;4.10;1.77;;;25.20;85.80;;;;;;5037080;28;20201;-76
2022/06/12 13:26:51;;;;;;;3.78;1.40;;;25.40;85.30;;;;;;5037497;28;20233;-77
2022/06/12 13:29:23;;;;;;;5.90;1.55;;;25.50;83.40;;;;;;5037110;28;20665;-78
2022/06/12 13:32:02;;;;;;;4.53;1.42;;;25.50;82.30;;;;;;5039053;28;20217;-75
2022/06/12 13:34:30;;;;;;;6.40;1.52;;;25.40;82.30;;;;;;5039737;28;20611;-77
2022/06/12 13:37:05;;;;;;;4.25;1.60;;;25.20;82.60;;;;;;5034658;28;20210;-76
2022/06/12 13:39:36;;;;;;;4.60;1.58;;;25.10;82.10;;;;;;5033668;28;20220;-75
2022/06/12 13:42:12;;;;;;;3.22;1.50;;;24.90;83.50;;;;;;5037184;28;20594;-76
2022/06/12 13:44:39;;;;;;;6.20;1.60;;;24.90;84.10;;;;;;5035148;28;20201;-76
2022/06/12 13:47:18;;;;;;;2.97;1.35;;;24.80;84.30;;;;;;5038334;28;20278;-77
2022/06/12 13:50:18;;;;;;;5.43;1.85;;;24.90;84.20;;;;;;5038093;28;20204;-76